Time;durP1;ratioP1;P1;durP2;ratioP2;P2;SDS_P1;SDS_P2;PMS_P1;PMS_P2;Temp;Humidity;BMP_temperature;BMP_pressure;BME280_temperature;BME280_humidity;BME280_pressure;Samples;Min_cycle;Max_cycle;Signal;HPM_P1;HPM_P2
2024/02/26 00:01:47;;;;;;;72.60;50.70;;;;;;;2.08;100.00;98008.85;109244;1255;60169;-74
2024/02/26 00:04:14;;;;;;;81.00;54.80;;;;;;;2.04;100.00;98007.83;109216;1255;67866;-74
2024/02/26 00:06:41;;;;;;;83.80;55.80;;;;;;;2.01;100.00;98003.77;109241;1255;60050;-74
2024/02/26 00:09:11;;;;;;;84.70;54.90;;;;;;;2.01;100.00;98001.50;109219;1255;65086;-74
2024/02/26 00:11:38;;;;;;;;;;;;;;;2.00;100.00;97998.05;109006;1256;59799;-73
2024/02/26 00:14:04;;;;;;;74.60;50.40;;;;;;;1.98;100.00;97996.73;109226;1255;60084;-73
2024/02/26 00:16:31;;;;;;;77.90;50.60;;;;;;;1.98;100.00;97998.66;109250;1255;68031;-73
2024/02/26 00:18:58;;;;;;;78.00;51.40;;;;;;;1.98;100.00;97995.16;109230;1255;60899;-74
2024/02/26 00:21:24;;;;;;;81.50;51.70;;;;;;;1.97;100.00;97995.92;109208;1255;65455;-73
2024/02/26 00:23:53;;;;;;;73.60;49.20;;;;;;;1.94;100.00;97997.30;109188;1255;59776;-74
2024/02/26 00:26:19;;;;;;;79.30;52.90;;;;;;;1.89;100.00;97996.82;108949;1255;60020;-74
2024/02/26 00:28:46;;;;;;;85.40;57.40;;;;;;;1.83;100.00;97996.23;109253;1255;67925;-73
2024/02/26 00:31:13;;;;;;;84.10;53.50;;;;;;;1.78;100.00;97996.30;109229;1255;60102;-74
2024/02/26 00:33:40;;;;;;;76.50;51.80;;;;;;;1.78;100.00;97994.75;109207;1255;65133;-73
2024/02/26 00:36:06;;;;;;;74.60;50.70;;;;;;;1.78;100.00;97986.65;109249;1255;59867;-73
2024/02/26 00:38:33;;;;;;;77.40;51.90;;;;;;;1.78;100.00;97988.25;109254;1255;59718;-74
2024/02/26 00:41:00;;;;;;;74.70;50.30;;;;;;;1.74;100.00;97988.98;109258;1255;68094;-74
2024/02/26 00:43:26;;;;;;;81.60;55.80;;;;;;;1.69;100.00;97986.06;109240;1255;60178;-74
2024/02/26 00:45:53;;;;;;;80.40;55.20;;;;;;;1.66;100.00;97985.15;109233;1256;65067;-73
2024/02/26 00:48:20;;;;;;;84.10;54.90;;;;;;;1.63;100.00;97986.31;109208;1255;59830;-73
2024/02/26 00:50:46;;;;;;;92.10;58.80;;;;;;;1.58;100.00;97984.28;108962;1255;59889;-73
2024/02/26 00:53:13;;;;;;;96.20;61.20;;;;;;;1.55;100.00;97981.96;109215;1255;67903;-74
2024/02/26 00:55:40;;;;;;;95.20;62.80;;;;;;;1.55;100.00;97983.02;109241;1256;60096;-73
2024/02/26 00:58:06;;;;;;;96.00;64.30;;;;;;;1.58;100.00;97986.04;109201;1255;65328;-73
2024/02/26 01:00:33;;;;;;;88.70;58.90;;;;;;;1.61;100.00;97987.48;109203;1255;59780;-73
2024/02/26 01:02:59;;;;;;;93.60;60.10;;;;;;;1.59;100.00;97986.15;109262;1255;59830;-74
2024/02/26 01:05:26;;;;;;;97.00;64.40;;;;;;;1.56;100.00;97987.90;109206;1255;67849;-73
2024/02/26 01:07:53;;;;;;;89.60;60.40;;;;;;;1.51;100.00;97991.61;109215;1255;60043;-73
2024/02/26 01:10:20;;;;;;;91.90;64.10;;;;;;;1.46;100.00;97988.33;109189;1255;64809;-73
2024/02/26 01:12:47;;;;;;;95.70;68.20;;;;;;;1.43;100.00;97984.62;109032;1255;59893;-74
2024/02/26 01:15:14;;;;;;;89.20;62.90;;;;;;;1.46;100.00;97986.25;109016;1255;59897;-73
2024/02/26 01:17:41;;;;;;;95.10;66.00;;;;;;;1.50;100.00;97986.39;109237;1256;66661;-73
2024/02/26 01:20:08;;;;;;;89.00;62.00;;;;;;;1.49;100.00;97985.38;109236;1255;60919;-75
2024/02/26 01:22:35;;;;;;;94.30;62.90;;;;;;;1.47;100.00;97986.00;109211;1255;65123;-73
2024/02/26 01:25:02;;;;;;;90.60;61.80;;;;;;;1.47;100.00;97985.30;109172;1255;59834;-73
2024/02/26 01:27:29;;;;;;;94.20;65.20;;;;;;;1.46;100.00;97986.02;109240;1255;59866;-73
2024/02/26 01:29:56;;;;;;;100.90;70.30;;;;;;;1.45;100.00;97984.71;109226;1255;67979;-73
2024/02/26 01:32:22;;;;;;;91.20;63.20;;;;;;;1.46;100.00;97983.11;109222;1255;60268;-73
2024/02/26 01:34:49;;;;;;;88.70;62.50;;;;;;;1.44;100.00;97987.02;109211;1255;64992;-73
2024/02/26 01:37:15;;;;;;;93.10;63.10;;;;;;;1.42;100.00;97988.00;109196;1255;60171;-74
2024/02/26 01:39:42;;;;;;;95.60;65.60;;;;;;;1.42;100.00;97986.09;109209;1255;59717;-73
2024/02/26 01:42:09;;;;;;;91.60;63.90;;;;;;;1.42;100.00;97990.10;109195;1256;67484;-73
2024/02/26 01:44:35;;;;;;;90.40;62.40;;;;;;;1.42;100.00;97985.04;109226;1255;70191;-74
2024/02/26 01:47:02;;;;;;;98.00;67.70;;;;;;;1.41;100.00;97977.55;109197;1255;65194;-73
2024/02/26 01:49:29;;;;;;;92.70;64.50;;;;;;;1.44;100.00;97976.17;109231;1255;59896;-73
2024/02/26 01:51:57;;;;;;;93.70;63.20;;;;;;;1.50;100.00;97980.09;109226;1255;59946;-73
2024/02/26 01:54:25;;;;;;;89.90;63.50;;;;;;;1.52;100.00;97979.98;109213;1255;67852;-74
2024/02/26 01:56:51;;;;;;;88.40;62.00;;;;;;;1.50;100.00;97982.52;109191;1255;60272;-74
2024/02/26 01:59:19;;;;;;;91.40;64.00;;;;;;;1.47;100.00;97978.32;108995;1255;64325;-73
2024/02/26 02:01:49;;;;;;;86.00;64.00;;;;;;;1.41;100.00;97984.71;109220;1255;59790;-74
2024/02/26 02:04:16;;;;;;;96.30;64.10;;;;;;;1.34;100.00;97985.75;109205;1255;59753;-74
2024/02/26 02:06:44;;;;;;;96.00;64.30;;;;;;;1.28;100.00;97982.67;109198;1255;66727;-73
2024/02/26 02:09:11;;;;;;;93.30;64.30;;;;;;;1.24;100.00;97983.06;109209;1255;59998;-74
2024/02/26 02:11:38;;;;;;;91.70;65.40;;;;;;;1.22;100.00;97984.73;109204;1255;65036;-73
2024/02/26 02:14:04;;;;;;;97.40;68.10;;;;;;;1.22;100.00;97984.86;109181;1255;60633;-73
2024/02/26 02:16:31;;;;;;;97.00;64.40;;;;;;;1.24;100.00;97984.63;109028;1256;59874;-74
2024/02/26 02:18:58;;;;;;;92.80;69.00;;;;;;;1.22;100.00;97987.33;109193;1255;66816;-73
2024/02/26 02:21:25;;;;;;;95.40;66.60;;;;;;;1.20;100.00;97984.30;109182;1255;60993;-74
2024/02/26 02:23:51;;;;;;;96.30;65.80;;;;;;;1.16;100.00;97978.35;109190;1255;64086;-74
2024/02/26 02:26:18;;;;;;;90.40;66.20;;;;;;;1.16;100.00;97976.41;109181;1255;59805;-73
2024/02/26 02:28:46;;;;;;;97.00;71.40;;;;;;;1.18;100.00;97977.73;109234;1255;59858;-73
2024/02/26 02:31:14;;;;;;;97.50;66.50;;;;;;;1.17;100.00;97975.67;109161;1255;67753;-73
2024/02/26 02:33:42;;;;;;;99.10;68.40;;;;;;;1.19;100.00;97978.89;109183;1255;60217;-73
2024/02/26 02:36:10;;;;;;;91.70;63.70;;;;;;;1.19;100.00;97986.44;109209;1255;65086;-73
2024/02/26 02:38:37;;;;;;;110.00;76.30;;;;;;;1.16;100.00;97991.11;109194;1255;59853;-73
2024/02/26 02:41:05;;;;;;;93.00;69.80;;;;;;;1.17;100.00;97991.08;109208;1255;60008;-73
2024/02/26 02:43:31;;;;;;;99.10;70.90;;;;;;;1.17;100.00;97989.83;109197;1255;67673;-73
2024/02/26 02:45:58;;;;;;;100.80;70.30;;;;;;;1.17;100.00;97987.59;109023;1255;60573;-74
2024/02/26 02:48:24;;;;;;;95.00;68.30;;;;;;;1.15;100.00;97989.94;109178;1255;65355;-73
2024/02/26 02:50:51;;;;;;;93.30;67.40;;;;;;;1.11;100.00;97991.31;109214;1255;59753;-73
2024/02/26 02:53:18;;;;;;;106.20;74.40;;;;;;;1.08;100.00;97985.70;109202;1255;60129;-73
2024/02/26 02:55:44;;;;;;;96.60;70.80;;;;;;;1.05;100.00;97983.20;109203;1255;67770;-73
2024/02/26 02:58:11;;;;;;;96.90;68.10;;;;;;;1.01;100.00;97989.49;109182;1255;61096;-73
2024/02/26 03:00:38;;;;;;;102.40;72.40;;;;;;;0.98;100.00;97988.58;109191;1255;65028;-73
2024/02/26 03:03:04;;;;;;;98.70;70.70;;;;;;;0.98;100.00;97987.89;109212;1256;59768;-73
2024/02/26 03:05:31;;;;;;;94.90;66.60;;;;;;;0.99;100.00;97989.61;109188;1255;59849;-73
2024/02/26 03:07:58;;;;;;;88.10;64.70;;;;;;;0.99;100.00;97985.56;109200;1256;67939;-74
2024/02/26 03:10:24;;;;;;;92.50;62.00;;;;;;;0.99;100.00;97987.31;109215;1255;61267;-74
2024/02/26 03:12:51;;;;;;;86.00;61.20;;;;;;;1.00;100.00;97988.52;109191;1255;63970;-74
2024/02/26 03:15:18;;;;;;;83.20;58.10;;;;;;;1.06;100.00;97981.77;109171;1255;60037;-74
2024/02/26 03:17:44;;;;;;;82.50;57.30;;;;;;;1.10;100.00;97973.67;109240;1255;60040;-74
2024/02/26 03:20:11;;;;;;;80.30;57.10;;;;;;;1.16;100.00;97967.69;109214;1255;67754;-73
2024/02/26 03:22:40;;;;;;;90.60;67.90;;;;;;;1.20;100.00;97964.32;109223;1255;60231;-73
2024/02/26 03:25:07;;;;;;;87.90;64.90;;;;;;;1.21;100.00;97959.56;109244;1255;65072;-73
2024/02/26 03:27:34;;;;;;;82.20;60.40;;;;;;;1.23;100.00;97954.94;109186;1256;59829;-73
2024/02/26 03:30:01;;;;;;;86.20;62.80;;;;;;;1.24;100.00;97953.80;109210;1256;60330;-76
2024/02/26 03:32:28;;;;;;;89.50;64.60;;;;;;;1.23;100.00;97954.59;109206;1255;67851;-74
2024/02/26 03:34:55;;;;;;;87.00;61.00;;;;;;;1.19;100.00;97953.71;109173;1256;61122;-73
2024/02/26 03:37:22;;;;;;;76.30;57.00;;;;;;;1.18;100.00;97947.27;109199;1255;65027;-73
2024/02/26 03:39:49;;;;;;;82.10;60.50;;;;;;;1.22;100.00;97945.17;109200;1255;60268;-73
2024/02/26 03:42:16;;;;;;;78.40;57.30;;;;;;;1.19;100.00;97946.36;109204;1255;59785;-74
2024/02/26 03:44:43;;;;;;;92.50;61.20;;;;;;;1.15;100.00;97945.14;109197;1256;67872;-74
2024/02/26 03:47:09;;;;;;;82.00;58.60;;;;;;;1.12;100.00;97948.98;109202;1255;60643;-74
2024/02/26 03:49:36;;;;;;;75.80;56.60;;;;;;;1.07;100.00;97945.34;109203;1255;64787;-73
2024/02/26 03:52:03;;;;;;;74.50;55.80;;;;;;;1.05;100.00;97941.57;109188;1255;59926;-74
2024/02/26 03:54:29;;;;;;;74.10;55.40;;;;;;;1.07;100.00;97939.58;108972;1255;59927;-73
2024/02/26 03:56:56;;;;;;;88.40;66.90;;;;;;;1.09;100.00;97940.52;109188;1255;66890;-73
2024/02/26 03:59:24;;;;;;;90.10;63.80;;;;;;;1.08;100.00;97941.98;109184;1255;60821;-73
2024/02/26 04:01:51;;;;;;;85.30;65.20;;;;;;;1.06;100.00;97941.87;109038;1255;64563;-74
2024/02/26 04:04:18;;;;;;;85.60;60.70;;;;;;;1.04;100.00;97943.19;109158;1255;60690;-74
2024/02/26 04:06:47;;;;;;;88.40;62.30;;;;;;;1.02;100.00;97941.02;109190;1255;60231;-73
2024/02/26 04:09:14;;;;;;;83.40;59.20;;;;;;;0.98;100.00;97939.95;109180;1255;65637;-74
2024/02/26 04:11:43;;;;;;;69.10;50.80;;;;;;;0.96;100.00;97935.19;109221;1255;61097;-73
2024/02/26 04:14:11;;;;;;;76.90;54.80;;;;;;;0.95;100.00;97935.05;109162;1256;64011;-73
2024/02/26 04:16:38;;;;;;;75.00;52.90;;;;;;;0.94;100.00;97930.55;109164;1255;59831;-73
2024/02/26 04:19:06;;;;;;;73.70;50.00;;;;;;;0.96;100.00;97927.13;109204;1255;59794;-73
2024/02/26 04:21:34;;;;;;;76.70;55.10;;;;;;;1.05;100.00;97925.13;108980;1255;67831;-74
2024/02/26 04:24:01;;;;;;;65.40;49.60;;;;;;;1.10;100.00;97920.71;109205;1255;59848;-74
2024/02/26 04:26:30;;;;;;;66.30;48.70;;;;;;;1.14;100.00;97914.06;109199;1255;63592;-73
2024/02/26 04:28:57;;;;;;;68.20;51.40;;;;;;;1.18;100.00;97911.27;109147;1255;60036;-73
2024/02/26 04:31:26;;;;;;;61.40;45.10;;;;;;;1.16;100.00;97910.98;109186;1255;59867;-74
2024/02/26 04:33:52;;;;;;;61.20;45.00;;;;;;;1.13;100.00;97904.83;109197;1255;67775;-73
2024/02/26 04:36:19;;;;;;;58.40;43.00;;;;;;;1.15;100.00;97905.96;109234;1254;60784;-73
2024/02/26 04:38:45;;;;;;;55.20;43.10;;;;;;;1.17;100.00;97904.66;109305;1254;64227;-73
2024/02/26 04:41:12;;;;;;;58.80;44.60;;;;;;;1.18;100.00;97907.23;109266;1255;59813;-73
2024/02/26 04:43:41;;;;;;;58.40;43.80;;;;;;;1.15;100.00;97908.73;109311;1254;59875;-73
2024/02/26 04:46:08;;;;;;;58.50;44.50;;;;;;;1.10;100.00;97901.80;109292;1256;67538;-73
2024/02/26 04:48:36;;;;;;;62.10;46.70;;;;;;;1.06;100.00;97900.95;109304;1254;60180;-73
2024/02/26 04:51:03;;;;;;;72.10;52.40;;;;;;;1.04;100.00;97898.77;109293;1254;65034;-74
2024/02/26 04:53:29;;;;;;;59.00;45.50;;;;;;;1.07;100.00;97894.43;109165;1254;59762;-74
2024/02/26 04:55:56;;;;;;;54.10;39.30;;;;;;;1.16;100.00;97898.58;109297;1254;59781;-73
2024/02/26 04:58:23;;;;;;;47.70;35.60;;;;;;;1.27;100.00;97897.36;109348;1254;65600;-74
2024/02/26 05:00:50;;;;;;;47.50;34.40;;;;;;;1.39;100.00;97898.73;109298;1254;60057;-74
2024/02/26 05:03:16;;;;;;;50.10;37.10;;;;;;;1.50;100.00;97903.43;109307;1254;64062;-73
2024/02/26 05:05:43;;;;;;;52.00;38.10;;;;;;;1.56;100.00;97902.80;109259;1256;59759;-73
2024/02/26 05:08:10;;;;;;;54.30;38.30;;;;;;;1.57;100.00;97904.13;109331;1254;60609;-73
2024/02/26 05:10:40;;;;;;;52.40;39.30;;;;;;;1.61;100.00;97905.73;109293;1254;66864;-74
2024/02/26 05:13:07;;;;;;;52.00;39.80;;;;;;;1.61;100.00;97910.27;109080;1255;59804;-74
2024/02/26 05:15:34;;;;;;;53.90;38.60;;;;;;;1.59;100.00;97907.77;109278;1255;64047;-73
2024/02/26 05:18:02;;;;;;;54.20;39.10;;;;;;;1.57;100.00;97906.96;109289;1254;59809;-73
2024/02/26 05:20:29;;;;;;;56.60;43.70;;;;;;;1.55;100.00;97909.66;109275;1254;60138;-73
2024/02/26 05:22:55;;;;;;;59.40;47.80;;;;;;;1.52;100.00;97911.55;109265;1254;67934;-73
2024/02/26 05:25:22;;;;;;;55.00;43.00;;;;;;;1.49;100.00;97910.81;109274;1254;60255;-72
2024/02/26 05:27:48;;;;;;;55.60;44.10;;;;;;;1.47;100.00;97910.20;109105;1254;64139;-73
2024/02/26 05:30:16;;;;;;;55.00;43.10;;;;;;;1.44;100.00;97911.06;109289;1255;59789;-73
2024/02/26 05:32:42;;;;;;;56.60;43.50;;;;;;;1.41;100.00;97915.09;109291;1254;59702;-73
2024/02/26 05:35:09;;;;;;;51.40;41.10;;;;;;;1.39;100.00;97914.48;109276;1254;66788;-74
2024/02/26 05:37:35;;;;;;;55.10;41.50;;;;;;;1.37;100.00;97914.76;109047;1254;60776;-72
2024/02/26 05:40:04;;;;;;;54.30;40.10;;;;;;;1.37;100.00;97915.09;109262;1254;63854;-73
2024/02/26 05:42:31;;;;;;;51.70;38.60;;;;;;;1.38;100.00;97915.07;109142;1254;59761;-74
2024/02/26 05:44:58;;;;;;;55.20;40.40;;;;;;;1.40;100.00;97916.15;109040;1254;59774;-73
2024/02/26 05:47:24;;;;;;;59.80;42.40;;;;;;;1.45;100.00;97912.95;109271;1254;66806;-74
2024/02/26 05:49:51;;;;;;;63.30;44.10;;;;;;;1.51;100.00;97915.45;109262;1255;60299;-74
2024/02/26 05:52:17;;;;;;;62.20;45.60;;;;;;;1.54;100.00;97917.39;109259;1255;64050;-73
2024/02/26 05:54:44;;;;;;;64.60;48.50;;;;;;;1.57;100.00;97919.91;109267;1255;59881;-75
2024/02/26 05:57:11;;;;;;;67.70;46.90;;;;;;;1.60;100.00;97917.83;109290;1254;59885;-74
2024/02/26 05:59:37;;;;;;;56.60;43.40;;;;;;;1.67;100.00;97914.36;109123;1254;68003;-73
2024/02/26 06:02:04;;;;;;;60.60;44.50;;;;;;;1.77;100.00;97919.84;109303;1256;60178;-73
2024/02/26 06:04:31;;;;;;;66.60;47.70;;;;;;;1.86;100.00;97925.88;109253;1256;66023;-74
2024/02/26 06:06:58;;;;;;;66.10;49.60;;;;;;;1.93;100.00;97927.61;109251;1255;60109;-74
2024/02/26 06:09:24;;;;;;;57.20;42.40;;;;;;;1.99;100.00;97917.88;109294;1255;59675;-74
2024/02/26 06:11:51;;;;;;;68.70;48.10;;;;;;;2.10;100.00;97925.53;109277;1254;67818;-74
2024/02/26 06:14:18;;;;;;;66.70;48.40;;;;;;;2.19;100.00;97919.66;109132;1254;61112;-74
2024/02/26 06:16:45;;;;;;;59.70;46.50;;;;;;;2.28;100.00;97920.09;109246;1255;64857;-74
2024/02/26 06:19:11;;;;;;;47.80;37.50;;;;;;;2.39;100.00;97923.42;108998;1255;59815;-74
2024/02/26 06:21:38;;;;;;;45.30;34.00;;;;;;;2.51;100.00;97926.83;108991;1254;59798;-73
2024/02/26 06:24:05;;;;;;;46.00;34.90;;;;;;;2.66;100.00;97927.23;109270;1255;68016;-73
2024/02/26 06:26:33;;;;;;;44.40;34.20;;;;;;;2.84;100.00;97930.87;109323;1254;61110;-73
2024/02/26 06:28:59;;;;;;;44.40;31.60;;;;;;;3.01;100.00;97926.64;109272;1254;64150;-73
2024/02/26 06:31:27;;;;;;;42.80;32.40;;;;;;;3.17;100.00;97922.96;109295;1254;59855;-73
2024/02/26 06:33:54;;;;;;;41.10;30.60;;;;;;;3.34;100.00;97925.72;109268;1254;59837;-73
2024/02/26 06:36:20;;;;;;;38.20;30.70;;;;;;;3.49;100.00;97927.86;109276;1254;67805;-74
2024/02/26 06:38:47;;;;;;;42.70;30.60;;;;;;;3.65;100.00;97934.04;109318;1254;59953;-74
2024/02/26 06:41:14;;;;;;;43.00;31.20;;;;;;;3.78;100.00;97941.42;109281;1254;65106;-74
2024/02/26 06:43:40;;;;;;;44.90;32.80;;;;;;;3.88;100.00;97937.12;109252;1254;59764;-73
2024/02/26 06:46:07;;;;;;;38.60;29.40;;;;;;;3.99;100.00;97935.95;109262;1254;60062;-73
2024/02/26 06:48:33;;;;;;;41.80;30.80;;;;;;;4.13;100.00;97938.86;109246;1255;67901;-74
2024/02/26 06:51:00;;;;;;;41.20;32.00;;;;;;;4.27;100.00;97937.01;109286;1254;60042;-73
2024/02/26 06:53:27;;;;;;;43.30;31.00;;;;;;;4.40;100.00;97942.94;109271;1254;62859;-73
2024/02/26 06:55:53;;;;;;;43.50;32.40;;;;;;;4.52;100.00;97945.01;109032;1254;59859;-73
2024/02/26 06:58:20;;;;;;;43.40;30.80;;;;;;;4.61;100.00;97944.64;109269;1254;59829;-73
2024/02/26 07:00:47;;;;;;;42.10;29.60;;;;;;;4.70;100.00;97950.67;109267;1254;67872;-74
2024/02/26 07:03:14;;;;;;;43.20;31.20;;;;;;;4.77;100.00;97950.02;109125;1256;61401;-74
2024/02/26 07:05:41;;;;;;;38.70;29.40;;;;;;;4.85;100.00;97948.48;109273;1255;65359;-74
2024/02/26 07:08:07;;;;;;;39.40;30.60;;;;;;;4.96;100.00;97945.20;109242;1256;60003;-73
2024/02/26 07:10:34;;;;;;;42.30;30.30;;;;;;;5.10;100.00;97945.59;109266;1254;59895;-73
2024/02/26 07:13:00;;;;;;;38.40;29.50;;;;;;;5.24;100.00;97948.05;109282;1254;66789;-73
2024/02/26 07:15:27;;;;;;;41.00;29.00;;;;;;;5.34;100.00;97943.56;109266;1255;60237;-73
2024/02/26 07:17:54;;;;;;;36.50;28.60;;;;;;;5.39;100.00;97941.45;109258;1255;65241;-73
2024/02/26 07:20:21;;;;;;;40.70;27.80;;;;;;;5.44;100.00;97943.65;109241;1255;59806;-73
2024/02/26 07:22:47;;;;;;;40.00;28.80;;;;;;;5.51;100.00;97937.89;109227;1256;60187;-74
2024/02/26 07:25:16;;;;;;;37.20;28.20;;;;;;;5.62;100.00;97938.97;109272;1255;67850;-73
2024/02/26 07:27:43;;;;;;;36.80;28.20;;;;;;;5.78;100.00;97940.58;109000;1256;61108;-74
2024/02/26 07:30:10;;;;;;;36.30;27.20;;;;;;;5.97;100.00;97938.69;109073;1257;65038;-74
2024/02/26 07:32:37;;;;;;;38.30;27.40;;;;;;;6.13;100.00;97940.10;108958;1256;59766;-74
2024/02/26 07:35:04;;;;;;;35.20;26.40;;;;;;;6.21;100.00;97941.67;109087;1256;60646;-72
2024/02/26 07:37:31;;;;;;;32.10;25.30;;;;;;;6.25;100.00;97947.06;109113;1256;67783;-73
2024/02/26 07:39:58;;;;;;;32.80;25.50;;;;;;;6.32;100.00;97950.30;109134;1256;59924;-73
2024/02/26 07:42:25;;;;;;;27.30;22.40;;;;;;;6.43;100.00;97947.81;108967;1256;65703;-74
2024/02/26 07:44:52;;;;;;;31.40;21.70;;;;;;;6.56;100.00;97948.02;109100;1256;59915;-74
2024/02/26 07:47:19;;;;;;;25.40;20.90;;;;;;;6.66;100.00;97945.60;109103;1256;59780;-73
2024/02/26 07:49:46;;;;;;;22.20;17.30;;;;;;;6.71;100.00;97940.98;109120;1256;67169;-73
2024/02/26 07:52:12;;;;;;;23.80;17.50;;;;;;;6.75;100.00;97939.12;109097;1256;61470;-73
2024/02/26 07:54:39;;;;;;;22.20;18.30;;;;;;;6.76;100.00;97940.10;109087;1256;65178;-73
2024/02/26 07:57:06;;;;;;;24.10;18.90;;;;;;;6.78;100.00;97944.02;109123;1256;59987;-73
2024/02/26 07:59:32;;;;;;;25.20;19.00;;;;;;;6.83;100.00;97938.73;109100;1256;59846;-73
2024/02/26 08:01:59;;;;;;;23.20;17.50;;;;;;;6.90;100.00;97938.42;109161;1256;66932;-74
2024/02/26 08:04:26;;;;;;;25.20;18.20;;;;;;;6.98;100.00;97938.06;109087;1256;61168;-74
2024/02/26 08:06:53;;;;;;;24.00;19.10;;;;;;;7.07;100.00;97936.91;109143;1256;71872;-73
2024/02/26 08:09:19;;;;;;;24.10;18.10;;;;;;;7.19;100.00;97934.17;109126;1256;59800;-73
2024/02/26 08:11:46;;;;;;;25.70;19.30;;;;;;;7.37;100.00;97934.98;109133;1256;59815;-74
2024/02/26 08:14:13;;;;;;;23.90;20.10;;;;;;;7.56;100.00;97934.16;109101;1256;67997;-74
2024/02/26 08:16:40;;;;;;;24.40;19.20;;;;;;;7.73;100.00;97938.10;109097;1256;61087;-73
2024/02/26 08:19:06;;;;;;;24.20;21.20;;;;;;;7.91;100.00;97936.26;108991;1256;64104;-73
2024/02/26 08:21:33;;;;;;;25.90;20.50;;;;;;;8.10;100.00;97937.33;108913;1256;59824;-73
2024/02/26 08:23:59;;;;;;;25.60;20.50;;;;;;;8.30;100.00;97935.98;109094;1256;59785;-73
2024/02/26 08:26:26;;;;;;;24.70;19.40;;;;;;;8.45;100.00;97941.46;109103;1256;67923;-73
2024/02/26 08:28:55;;;;;;;21.40;18.10;;;;;;;8.60;100.00;97940.19;109015;1254;60334;-73
2024/02/26 08:31:23;;;;;;;22.30;17.70;;;;;;;8.78;100.00;97941.30;109262;1254;65361;-74
2024/02/26 08:33:50;;;;;;;22.00;16.90;;;;;;;8.97;100.00;97938.91;109289;1257;59866;-74
2024/02/26 08:36:16;;;;;;;20.70;15.80;;;;;;;9.19;100.00;97940.99;109297;1257;59918;-73
2024/02/26 08:38:43;;;;;;;18.00;14.00;;;;;;;9.36;100.00;97941.22;109291;1254;67851;-73
2024/02/26 08:41:10;;;;;;;16.80;13.70;;;;;;;9.52;100.00;97936.59;109267;1257;60112;-73
2024/02/26 08:43:36;;;;;;;13.80;10.70;;;;;;;9.68;100.00;97938.16;109268;1257;64117;-73
2024/02/26 08:46:03;;;;;;;16.80;11.10;;;;;;;9.80;100.00;97939.81;109265;1254;59981;-73
2024/02/26 08:48:30;;;;;;;11.70;9.10;;;;;;;9.93;100.00;97931.16;109285;1254;59821;-73
2024/02/26 08:50:56;;;;;;;7.90;7.00;;;;;;;10.03;100.00;97933.48;109279;1255;67787;-73
2024/02/26 08:53:23;;;;;;;9.10;7.50;;;;;;;10.16;100.00;97935.86;109274;1254;61441;-73
2024/02/26 08:55:51;;;;;;;7.60;6.80;;;;;;;10.26;100.00;97939.45;109269;1256;64132;-73
2024/02/26 08:58:17;;;;;;;8.00;6.70;;;;;;;10.38;100.00;97936.56;109295;1256;59836;-72
2024/02/26 09:00:44;;;;;;;8.30;7.20;;;;;;;10.49;100.00;97933.16;109038;1254;59802;-73
2024/02/26 09:03:11;;;;;;;9.60;7.70;;;;;;;10.60;100.00;97933.30;109286;1254;67786;-73
2024/02/26 09:05:37;;;;;;;6.70;6.00;;;;;;;10.65;100.00;97936.38;109279;1254;60282;-73
2024/02/26 09:08:04;;;;;;;8.50;7.00;;;;;;;10.65;100.00;97938.92;109279;1254;64039;-73
2024/02/26 09:10:32;;;;;;;7.90;7.10;;;;;;;10.64;100.00;97935.58;109267;1255;59873;-73
2024/02/26 09:12:59;;;;;;;9.00;8.00;;;;;;;10.69;100.00;97935.04;109308;1254;59800;-73
2024/02/26 09:15:26;;;;;;;9.90;7.20;;;;;;;10.75;100.00;97940.74;109265;1259;68004;-73
2024/02/26 09:17:52;;;;;;;9.30;8.20;;;;;;;10.90;100.00;97939.42;109280;1254;60081;-73
2024/02/26 09:20:20;;;;;;;8.70;7.80;;;;;;;11.10;100.00;97937.25;109285;1254;65124;-74
2024/02/26 09:22:47;;;;;;;11.10;7.80;;;;;;;11.28;100.00;97933.92;108931;1260;60663;-73
2024/02/26 09:25:15;;;;;;;9.10;7.90;;;;;;;11.40;100.00;97931.55;109262;1254;60079;-74
2024/02/26 09:27:45;;;;;;;10.40;8.40;;;;;;;11.54;100.00;97930.88;109246;1254;67916;-73
2024/02/26 09:30:13;;;;;;;10.80;9.60;;;;;;;11.75;100.00;97934.74;109244;1254;61199;-73
2024/02/26 09:32:40;;;;;;;14.20;9.90;;;;;;;11.95;100.00;97930.33;109256;1254;63980;-73
2024/02/26 09:35:06;;;;;;;18.80;14.10;;;;;;;12.09;100.00;97930.52;109275;1254;59828;-74
2024/02/26 09:37:34;;;;;;;25.60;22.80;;;;;;;12.08;100.00;97930.01;109293;1254;59834;-73
2024/02/26 09:40:00;;;;;;;43.40;36.90;;;;;;;12.08;100.00;97930.73;109232;1257;67493;-73
2024/02/26 09:42:32;;;;;;;18.60;15.60;;;;;;;12.11;100.00;97931.17;109244;1254;59824;-73
2024/02/26 09:45:02;;;;;;;17.30;13.40;;;;;;;12.14;100.00;97931.80;109257;1257;65268;-73
2024/02/26 09:47:31;;;;;;;15.20;12.10;;;;;;;12.20;100.00;97930.76;109244;1254;60105;-73
2024/02/26 09:49:59;;;;;;;13.30;11.40;;;;;;;12.24;100.00;97927.67;109115;1257;60155;-73
2024/02/26 09:52:28;;;;;;;13.50;12.00;;;;;;;12.35;100.00;97925.42;109303;1254;67558;-73
2024/02/26 09:54:55;;;;;;;14.80;11.50;;;;;;;12.42;100.00;97921.29;109275;1254;59933;-74
2024/02/26 09:57:24;;;;;;;17.80;12.70;;;;;;;12.36;100.00;97917.19;109240;1254;63977;-73
2024/02/26 09:59:54;;;;;;;12.50;10.90;;;;;;;12.35;100.00;97922.11;109306;1254;59843;-74
2024/02/26 10:02:21;;;;;;;14.50;11.60;;;;;;;12.43;100.00;97923.16;108961;1254;60257;-73
2024/02/26 10:04:50;;;;;;;13.20;11.40;;;;;;;12.61;100.00;97928.61;109159;1254;66711;-73
2024/02/26 10:07:17;;;;;;;12.00;10.70;;;;;;;12.78;100.00;97927.52;109307;1254;60961;-72
2024/02/26 10:09:44;;;;;;;12.40;10.60;;;;;;;12.96;100.00;97923.17;109228;1254;64003;-73
2024/02/26 10:12:15;;;;;;;14.70;11.60;;;;;;;13.21;100.00;97922.14;109247;1255;59822;-72
2024/02/26 10:14:42;;;;;;;17.10;11.60;;;;;;;13.46;100.00;97921.14;109017;1255;59793;-72
2024/02/26 10:17:08;;;;;;;12.90;11.40;;;;;;;13.62;100.00;97921.25;109281;1254;68001;-73
2024/02/26 10:19:35;;;;;;;13.30;11.60;;;;;;;13.66;100.00;97916.24;109283;1254;61195;-73
2024/02/26 10:22:04;;;;;;;12.70;10.10;;;;;;;13.69;100.00;97918.73;109273;1254;64756;-73
2024/02/26 10:24:31;;;;;;;14.00;10.00;;;;;;;13.74;100.00;97915.79;109239;1254;59802;-73
2024/02/26 10:26:58;;;;;;;12.60;11.00;;;;;;;13.92;100.00;97917.79;109270;1256;59682;-73
2024/02/26 10:29:25;;;;;;;9.90;8.90;;;;;;;14.16;100.00;97914.59;109265;1254;66710;-73
2024/02/26 10:31:52;;;;;;;12.80;10.30;;;;;;;14.20;100.00;97913.90;109001;1254;60203;-74
2024/02/26 10:34:19;;;;;;;10.70;8.90;;;;;;;14.25;100.00;97911.44;108997;1254;65281;-74
2024/02/26 10:36:46;;;;;;;11.90;8.90;;;;;;;14.28;100.00;97909.75;108994;1254;60227;-74
2024/02/26 10:39:13;;;;;;;10.60;8.80;;;;;;;14.16;100.00;97913.42;109263;1254;59846;-73
2024/02/26 10:41:42;;;;;;;10.50;8.70;;;;;;;13.93;100.00;97915.00;109280;1254;65616;-73
2024/02/26 10:44:12;;;;;;;12.00;9.40;;;;;;;13.68;100.00;97916.39;109274;1254;61107;-73
2024/02/26 10:46:42;;;;;;;14.00;10.10;;;;;;;13.52;100.00;97917.91;109287;1254;64971;-74
2024/02/26 10:49:13;;;;;;;;;;;;;;;13.35;100.00;97920.09;109218;1254;59843;-73
2024/02/26 10:51:44;;;;;;;14.00;10.80;;;;;;;13.17;100.00;97916.77;109267;1254;59795;-73
2024/02/26 10:54:15;;;;;;;14.00;10.90;;;;;;;13.02;100.00;97919.23;109290;1254;66963;-74
2024/02/26 10:56:43;;;;;;;16.00;11.60;;;;;;;12.90;100.00;97920.52;109263;1258;60770;-73
2024/02/26 10:59:10;;;;;;;13.60;10.50;;;;;;;12.86;100.00;97921.31;109243;1254;65098;-73
2024/02/26 11:01:40;;;;;;;63.60;41.80;;;;;;;12.79;100.00;97921.41;109152;1254;59858;-73
2024/02/26 11:04:08;;;;;;;14.30;12.00;;;;;;;12.77;100.00;97921.59;109262;1254;59735;-75
2024/02/26 11:06:36;;;;;;;13.60;11.30;;;;;;;12.80;100.00;97915.78;109320;1254;68026;-73
2024/02/26 11:09:03;;;;;;;15.00;9.80;;;;;;;12.83;100.00;97910.55;109281;1255;60121;-73